Time;durP1;ratioP1;P1;durP2;ratioP2;P2;SDS_P1;SDS_P2;PMS_P1;PMS_P2;Temp;Humidity;BMP_temperature;BMP_pressure;BME280_temperature;BME280_humidity;BME280_pressure;Samples;Min_cycle;Max_cycle;Signal;HPM_P1;HPM_P2
2021/06/17 00:00:49;;;;;;;3.40;3.20;;;;;;;16.68;100.00;97405.63;5115301;28;20705;-82
2021/06/17 00:03:17;;;;;;;3.00;2.80;;;;;;;16.62;100.00;97407.94;5115118;28;20603;-83
2021/06/17 00:05:45;;;;;;;3.43;3.23;;;;;;;16.49;100.00;97405.00;5115335;28;20194;-83
2021/06/17 00:08:13;;;;;;;3.20;3.00;;;;;;;16.36;100.00;97402.03;5115295;28;20390;-83
2021/06/17 00:10:43;;;;;;;6.17;3.20;;;;;;;16.26;100.00;97391.59;5114964;28;20278;-84
2021/06/17 00:13:14;;;;;;;3.60;3.40;;;;;;;16.17;100.00;97382.81;5115291;28;20183;-83
2021/06/17 00:15:42;;;;;;;5.00;3.30;;;;;;;16.25;100.00;97379.31;5115170;28;20225;-83
2021/06/17 00:18:11;;;;;;;3.53;3.33;;;;;;;16.28;100.00;97370.19;5115167;28;20256;-83
2021/06/17 00:20:39;;;;;;;3.20;3.00;;;;;;;16.25;100.00;97365.25;5115055;28;20607;-82
2021/06/17 00:23:07;;;;;;;3.43;3.13;;;;;;;16.30;100.00;97369.03;5114930;28;20197;-83
2021/06/17 00:25:34;;;;;;;3.63;3.33;;;;;;;16.25;100.00;97365.25;5114847;28;20263;-83
2021/06/17 00:28:03;;;;;;;6.70;3.27;;;;;;;16.19;100.00;97355.28;5115001;28;20202;-83
2021/06/17 00:30:32;;;;;;;3.73;3.43;;;;;;;15.98;100.00;97347.84;5114832;28;20234;-83
2021/06/17 00:32:59;;;;;;;3.53;3.23;;;;;;;15.82;100.00;97344.19;5114809;28;20243;-83
2021/06/17 00:35:28;;;;;;;3.17;2.90;;;;;;;15.66;100.00;97334.41;5114539;28;20226;-83
2021/06/17 00:37:56;;;;;;;5.30;3.63;;;;;;;15.58;100.00;97325.56;5115094;28;20658;-83
2021/06/17 00:40:25;;;;;;;4.50;3.23;;;;;;;15.49;100.00;97300.91;5114450;28;20228;-83
2021/06/17 00:42:54;;;;;;;4.10;3.33;;;;;;;15.40;100.00;97297.41;5114753;28;20255;-83
2021/06/17 00:45:25;;;;;;;3.30;3.10;;;;;;;15.36;100.00;97284.66;5114732;28;20258;-83
2021/06/17 00:47:54;;;;;;;3.80;3.40;;;;;;;15.35;100.00;97267.94;5114692;28;20238;-83
2021/06/17 00:50:22;;;;;;;3.57;3.10;;;;;;;15.45;100.00;97263.31;5114579;28;20205;-83
2021/06/17 00:52:50;;;;;;;3.40;3.10;;;;;;;15.54;100.00;97263.31;5114431;28;20202;-82
2021/06/17 00:55:18;;;;;;;3.40;3.10;;;;;;;15.61;100.00;97259.00;5113959;28;20201;-82
2021/06/17 00:57:46;;;;;;;2.80;2.60;;;;;;;15.76;100.00;97267.13;5114322;28;20189;-83
2021/06/17 01:00:17;;;;;;;3.17;2.97;;;;;;;15.72;100.00;97268.47;5114080;28;20287;-82
2021/06/17 01:02:45;;;;;;;3.57;3.27;;;;;;;15.75;100.00;97279.56;5114272;28;20217;-83
2021/06/17 01:05:16;;;;;;;3.30;3.00;;;;;;;15.84;100.00;97283.88;5114153;28;20198;-82
2021/06/17 01:07:49;;;;;;;4.20;3.17;;;;;;;15.85;100.00;97288.19;5114128;28;20187;-82
2021/06/17 01:10:25;;;;;;;3.17;2.90;;;;;;;15.90;100.00;97298.31;5114148;28;20190;-82
2021/06/17 01:13:11;;;;;;;3.50;3.20;;;;;;;15.92;100.00;97291.81;5113904;28;20182;-82
2021/06/17 01:15:45;;;;;;;3.87;3.57;;;;;;;15.95;100.00;97306.56;5113958;28;20196;-82
2021/06/17 01:18:16;;;;;;;3.87;3.57;;;;;;;16.02;100.00;97320.00;5114007;28;20186;-82
2021/06/17 01:20:51;;;;;;;4.00;3.33;;;;;;;15.99;100.00;97328.28;5113892;28;20211;-83
2021/06/17 01:23:50;;;;;;;3.90;3.60;;;;;;;15.96;100.00;97323.31;5113727;28;20605;-83
2021/06/17 01:26:24;;;;;;;3.70;3.50;;;;;;;15.95;100.00;97333.09;5072989;28;20197;-83
2021/06/17 01:28:56;;;;;;;3.83;3.53;;;;;;;15.94;100.00;97344.69;5113694;28;20280;-83
2021/06/17 01:31:27;;;;;;;3.93;3.63;;;;;;;15.91;100.00;97352.97;5113812;28;20182;-83
2021/06/17 01:33:56;;;;;;;3.57;3.27;;;;;;;15.91;100.00;97359.09;5113518;28;20189;-83
2021/06/17 01:36:28;;;;;;;3.87;3.57;;;;;;;15.92;100.00;97360.75;5113663;28;20661;-82
2021/06/17 01:38:59;;;;;;;4.13;3.67;;;;;;;16.02;100.00;97363.25;5113517;28;20182;-83
2021/06/17 01:41:30;;;;;;;4.33;3.47;;;;;;;16.01;100.00;97363.44;5113558;28;20220;-83
2021/06/17 01:44:02;;;;;;;3.53;3.23;;;;;;;16.06;100.00;97361.91;5113251;28;20184;-82
2021/06/17 01:46:32;;;;;;;5.57;3.27;;;;;;;16.11;100.00;97377.34;5113489;28;20287;-82
2021/06/17 01:49:00;;;;;;;3.77;3.47;;;;;;;15.98;100.00;97374.34;5113292;28;20255;-82
2021/06/17 01:51:29;;;;;;;4.57;3.83;;;;;;;15.99;100.00;97378.66;5113582;28;20212;-82
2021/06/17 01:53:56;;;;;;;3.43;2.83;;;;;;;16.00;100.00;97389.09;5113037;28;20195;-82
2021/06/17 01:56:26;;;;;;;3.60;3.40;;;;;;;16.00;100.00;97391.72;5113314;28;20559;-82
2021/06/17 01:58:55;;;;;;;3.67;3.37;;;;;;;15.94;100.00;97397.72;5113462;28;20573;-83
2021/06/17 02:01:29;;;;;;;4.03;3.73;;;;;;;15.98;100.00;97396.41;5113454;28;20648;-82
2021/06/17 02:03:58;;;;;;;4.20;3.80;;;;;;;15.96;100.00;97395.72;5113339;28;20269;-82
2021/06/17 02:06:27;;;;;;;3.73;3.43;;;;;;;15.91;100.00;97406.81;5113470;28;20654;-82
2021/06/17 02:08:57;;;;;;;3.87;3.57;;;;;;;15.81;100.00;97397.38;5112675;28;20768;-84
2021/06/17 02:11:26;;;;;;;3.70;3.33;;;;;;;15.70;100.00;97406.47;5112931;28;20194;-83
2021/06/17 02:13:55;;;;;;;3.73;3.43;;;;;;;15.68;100.00;97401.31;5113113;28;20570;-83
2021/06/17 02:16:26;;;;;;;3.97;3.67;;;;;;;15.74;100.00;97406.97;5112931;28;20199;-82
2021/06/17 02:18:55;;;;;;;3.67;3.37;;;;;;;15.71;100.00;97413.41;5112579;28;20184;-82
2021/06/17 02:21:24;;;;;;;4.07;3.23;;;;;;;15.67;100.00;97409.44;5112373;28;20221;-82
2021/06/17 02:23:56;;;;;;;3.50;3.30;;;;;;;15.68;100.00;97413.75;5112812;28;20196;-82
2021/06/17 02:26:26;;;;;;;3.37;3.17;;;;;;;15.69;100.00;97413.59;5113099;28;20604;-82
2021/06/17 02:28:55;;;;;;;4.90;3.57;;;;;;;15.65;100.00;97411.38;5112796;28;20604;-82
2021/06/17 02:31:29;;;;;;;3.90;3.60;;;;;;;15.57;100.00;97404.25;5113029;28;20201;-83
2021/06/17 02:33:57;;;;;;;4.80;3.80;;;;;;;15.67;100.00;97410.25;5112474;28;20185;-82
2021/06/17 02:36:26;;;;;;;4.77;3.93;;;;;;;15.76;100.00;97423.53;5112847;28;20203;-83
2021/06/17 02:38:57;;;;;;;3.80;3.50;;;;;;;15.80;100.00;97428.34;5112256;28;20566;-83
2021/06/17 02:41:27;;;;;;;3.50;3.30;;;;;;;15.76;100.00;97423.53;5112588;28;20202;-83
2021/06/17 02:43:58;;;;;;;4.23;3.83;;;;;;;15.75;100.00;97422.69;5112109;28;20268;-83
2021/06/17 02:46:27;;;;;;;4.00;3.60;;;;;;;15.72;100.00;97432.78;5112715;28;20663;-83
2021/06/17 02:48:55;;;;;;;3.60;3.30;;;;;;;15.77;100.00;97430.50;5112185;28;20191;-83
2021/06/17 02:51:23;;;;;;;4.47;3.97;;;;;;;15.74;100.00;97436.94;5112386;28;20665;-83
2021/06/17 02:53:52;;;;;;;4.27;3.93;;;;;;;15.73;100.00;97439.78;5112061;28;20274;-83
2021/06/17 02:56:25;;;;;;;6.63;3.87;;;;;;;15.79;100.00;97447.06;5112083;28;20253;-83
2021/06/17 02:59:11;;;;;;;3.70;3.40;;;;;;;15.82;100.00;97444.91;5112205;28;20206;-83
2021/06/17 03:01:47;;;;;;;3.73;3.43;;;;;;;15.84;100.00;97445.59;5112172;28;20206;-83
2021/06/17 03:04:19;;;;;;;3.97;3.67;;;;;;;15.84;100.00;97453.53;5111891;28;20247;-84
2021/06/17 03:06:50;;;;;;;3.90;3.50;;;;;;;15.88;100.00;97448.75;5112187;28;20656;-82
2021/06/17 03:09:24;;;;;;;3.70;3.33;;;;;;;15.92;100.00;97452.72;5111679;28;20711;-82
2021/06/17 03:11:55;;;;;;;4.10;2.90;;;;;;;15.84;100.00;97452.72;5111971;28;20190;-84
2021/06/17 03:14:28;;;;;;;4.17;3.40;;;;;;;15.88;100.00;97460.16;5112034;28;20187;-83
2021/06/17 03:16:58;;;;;;;5.83;3.20;;;;;;;15.89;100.00;97456.53;5112175;28;20222;-82
2021/06/17 03:19:28;;;;;;;3.83;3.43;;;;;;;15.82;100.00;97460.81;5111950;28;20187;-83
2021/06/17 03:21:58;;;;;;;3.87;3.57;;;;;;;15.83;100.00;97454.53;5110687;28;20256;-83
2021/06/17 03:24:29;;;;;;;3.87;3.40;;;;;;;15.80;100.00;97462.81;5110658;28;20196;-82
2021/06/17 03:26:59;;;;;;;4.33;3.90;;;;;;;15.84;100.00;97473.94;5110992;28;20691;-82
2021/06/17 03:29:32;;;;;;;4.20;3.90;;;;;;;15.75;100.00;97466.94;5111062;28;20249;-85
2021/06/17 03:32:02;;;;;;;4.20;3.90;;;;;;;15.51;100.00;97478.25;5110993;28;20267;-83
2021/06/17 03:34:31;;;;;;;4.40;4.00;;;;;;;15.38;100.00;97478.72;5112138;28;20198;-87
2021/06/17 03:36:59;;;;;;;6.77;4.13;;;;;;;15.34;100.00;97486.13;5115130;28;20639;-84
2021/06/17 03:39:28;;;;;;;3.20;2.90;;;;;;;15.42;100.00;97491.47;5114886;28;20640;-83
2021/06/17 03:41:57;;;;;;;3.37;3.17;;;;;;;15.57;100.00;97504.13;5114893;28;20217;-83
2021/06/17 03:44:25;;;;;;;3.30;3.10;;;;;;;15.72;100.00;97504.34;5114756;28;20241;-83
2021/06/17 03:46:54;;;;;;;3.10;2.90;;;;;;;15.88;100.00;97501.75;5114410;28;20193;-83
2021/06/17 03:49:25;;;;;;;3.60;3.30;;;;;;;15.97;100.00;97510.56;5114500;28;20277;-83
2021/06/17 03:51:56;;;;;;;14.30;12.80;;;;;;;15.96;100.00;97519.50;5114873;28;20197;-84
2021/06/17 03:54:25;;;;;;;8.50;7.70;;;;;;;15.90;100.00;97526.31;5114417;28;20201;-84
2021/06/17 03:56:55;;;;;;;9.87;8.93;;;;;;;15.93;100.00;97529.47;5114620;28;20691;-84
2021/06/17 03:59:24;;;;;;;6.23;4.80;;;;;;;15.68;100.00;97520.56;5114008;28;20184;-85
2021/06/17 04:01:57;;;;;;;5.30;4.90;;;;;;;15.57;100.00;97522.66;5114632;28;20233;-84
2021/06/17 04:04:34;;;;;;;5.00;4.60;;;;;;;15.43;100.00;97516.97;5114105;28;20220;-84
2021/06/17 04:07:05;;;;;;;5.13;4.77;;;;;;;15.48;100.00;97534.19;5114456;28;20265;-84
2021/06/17 04:09:34;;;;;;;4.90;4.50;;;;;;;15.55;100.00;97537.88;5113951;28;20234;-85
2021/06/17 04:12:04;;;;;;;4.80;4.50;;;;;;;15.60;100.00;97547.03;5114217;28;20203;-84
2021/06/17 04:14:34;;;;;;;4.03;3.73;;;;;;;15.72;100.00;97542.28;5113834;28;20230;-84
2021/06/17 04:17:03;;;;;;;4.20;3.90;;;;;;;15.85;100.00;97540.03;5114182;28;20238;-85
2021/06/17 04:19:34;;;;;;;6.30;3.60;;;;;;;15.76;100.00;97541.00;5114220;28;20205;-83
2021/06/17 04:22:04;;;;;;;3.80;3.50;;;;;;;15.76;100.00;97534.84;5113252;28;20643;-84
2021/06/17 04:24:34;;;;;;;4.20;3.80;;;;;;;15.73;100.00;97536.03;5114749;28;20212;-83
2021/06/17 04:27:02;;;;;;;3.93;3.60;;;;;;;15.75;100.00;97538.50;5114845;28;20194;-84
2021/06/17 04:29:33;;;;;;;7.37;3.70;;;;;;;15.78;100.00;97535.53;5114967;28;20193;-84
2021/06/17 04:32:01;;;;;;;4.13;3.77;;;;;;;15.82;100.00;97519.13;5114674;28;20542;-84
2021/06/17 04:34:28;;;;;;;4.03;3.73;;;;;;;15.92;100.00;97506.56;5114723;28;20286;-84
2021/06/17 04:36:57;;;;;;;4.00;3.70;;;;;;;16.10;100.00;97502.97;5114791;28;20200;-84
2021/06/17 04:39:27;;;;;;;4.60;4.20;;;;;;;16.13;100.00;97500.00;5114002;28;20229;-84
2021/06/17 04:41:55;;;;;;;4.77;4.40;;;;;;;16.26;100.00;97510.13;5114985;28;20229;-84
2021/06/17 04:44:23;;;;;;;4.60;4.27;;;;;;;16.35;100.00;97528.56;5113991;28;20682;-84
2021/06/17 04:46:51;;;;;;;4.87;4.47;;;;;;;16.43;100.00;97532.22;5114568;28;20194;-84
2021/06/17 04:49:21;;;;;;;4.93;4.50;;;;;;;16.52;100.00;97552.44;5114137;28;20224;-84
2021/06/17 04:51:49;;;;;;;4.50;4.20;;;;;;;16.53;100.00;97560.25;5114832;28;20274;-84
2021/06/17 04:54:19;;;;;;;4.63;4.20;;;;;;;16.48;100.00;97561.72;5114190;28;20671;-84
2021/06/17 04:56:47;;;;;;;5.30;4.83;;;;;;;16.39;100.00;97556.41;5114235;28;20194;-84
2021/06/17 04:59:14;;;;;;;5.20;4.80;;;;;;;16.47;100.00;97544.97;5100625;28;20202;-84
2021/06/17 05:01:42;;;;;;;9.27;4.80;;;;;;;16.55;100.00;97530.88;5093719;28;20288;-84
2021/06/17 05:04:10;;;;;;;4.87;4.47;;;;;;;16.48;100.00;97506.00;5102808;28;20202;-84
2021/06/17 05:06:40;;;;;;;7.20;4.47;;;;;;;16.43;100.00;97492.41;5114175;28;20277;-84
2021/06/17 05:11:59;;;;;;;5.10;4.70;;;;;;;16.61;100.00;97445.28;5056750;28;20189;-84
2021/06/17 05:14:26;;;;;;;4.50;4.20;;;;;;;16.67;100.00;97455.25;5113833;28;20241;-84
2021/06/17 05:16:54;;;;;;;4.63;4.17;;;;;;;16.45;100.00;97448.78;5114216;28;20671;-84
2021/06/17 05:19:21;;;;;;;6.33;4.27;;;;;;;16.45;100.00;97447.94;5113707;28;20667;-84
2021/06/17 05:21:48;;;;;;;4.40;4.03;;;;;;;16.41;100.00;97445.63;5113688;28;20254;-85
2021/06/17 05:24:16;;;;;;;3.60;3.30;;;;;;;16.50;100.00;97445.63;5113667;28;20201;-85
2021/06/17 05:26:43;;;;;;;5.83;4.40;;;;;;;16.55;100.00;97448.59;5105784;28;20198;-84
2021/06/17 05:29:12;;;;;;;4.27;3.87;;;;;;;16.65;100.00;97457.22;5092896;28;20199;-83
2021/06/17 05:31:39;;;;;;;4.03;3.70;;;;;;;16.70;100.00;97446.13;5093181;28;20226;-83
2021/06/17 05:34:06;;;;;;;4.87;4.17;;;;;;;16.79;100.00;97445.94;5093032;28;20206;-83
2021/06/17 05:36:34;;;;;;;10.90;4.63;;;;;;;16.84;100.00;97453.44;5093109;28;20195;-83
2021/06/17 05:39:01;;;;;;;4.23;3.93;;;;;;;16.90;100.00;97467.84;5092949;28;20638;-83
2021/06/17 05:41:29;;;;;;;3.80;3.50;;;;;;;16.97;100.00;97474.97;5093062;28;20204;-84
2021/06/17 05:43:56;;;;;;;4.47;3.30;;;;;;;17.07;100.00;97480.91;5092603;28;20223;-83
2021/06/17 05:46:25;;;;;;;3.97;3.67;;;;;;;17.37;100.00;97501.59;5093110;28;20219;-84
2021/06/17 05:48:53;;;;;;;4.30;3.97;;;;;;;17.62;100.00;97516.44;5092563;28;20292;-84
2021/06/17 05:51:20;;;;;;;3.70;3.40;;;;;;;18.17;100.00;97539.47;5093104;28;20200;-84
2021/06/17 05:53:47;;;;;;;6.57;5.70;;;;;;;18.76;100.00;97561.06;5092800;28;20291;-84
2021/06/17 05:56:14;;;;;;;5.50;5.00;;;;;;;19.27;100.00;97584.44;5092392;28;20219;-84
2021/06/17 05:58:42;;;;;;;4.43;4.13;;;;;;;19.46;100.00;97594.56;5092754;28;20216;-84
2021/06/17 06:01:09;;;;;;;5.00;3.07;;;;;;;19.79;100.00;97618.28;5092553;28;20254;-84
2021/06/17 06:03:38;;;;;;;3.83;3.53;;;;;;;19.91;100.00;97631.97;5093004;28;20231;-84
2021/06/17 06:06:06;;;;;;;4.47;3.63;;;;;;;20.29;100.00;97639.84;5093026;28;20695;-84
2021/06/17 06:08:34;;;;;;;5.13;3.80;;;;;;;20.53;100.00;97626.22;5092292;28;20228;-85
2021/06/17 06:11:01;;;;;;;4.67;3.77;;;;;;;20.82;100.00;97587.06;5092813;28;20200;-84
2021/06/17 06:13:30;;;;;;;4.13;3.30;;;;;;;21.04;100.00;97558.47;5092617;28;20580;-85
2021/06/17 06:15:57;;;;;;;3.77;2.93;;;;;;;21.32;100.00;97526.38;5093094;28;20344;-85
2021/06/17 06:18:26;;;;;;;3.30;3.00;;;;;;;21.33;100.00;97479.91;5092848;28;20239;-84
2021/06/17 06:20:57;;;;;;;3.17;2.97;;;;;;;21.56;100.00;97436.84;5092011;28;20200;-85
2021/06/17 06:23:25;;;;;;;3.20;2.83;;;;;;;21.71;100.00;97393.88;5091159;28;20886;-84
2021/06/17 06:25:53;;;;;;;5.47;3.17;;;;;;;21.93;100.00;97367.81;5091075;28;20270;-85
2021/06/17 06:28:21;;;;;;;2.67;2.47;;;;;;;22.15;100.00;97347.88;5092308;28;20347;-85
2021/06/17 06:30:50;;;;;;;2.90;2.70;;;;;;;22.60;100.00;97323.13;5092526;28;20196;-85
2021/06/17 06:33:19;;;;;;;4.57;2.80;;;;;;;22.49;100.00;97295.13;5092473;28;20680;-84
2021/06/17 06:35:46;;;;;;;2.43;2.23;;;;;;;21.96;100.00;97274.53;5092250;28;20188;-86
2021/06/17 06:38:15;;;;;;;4.17;2.40;;;;;;;22.16;100.00;97276.41;5092596;28;20276;-84
2021/06/17 06:40:43;;;;;;;2.67;2.10;;;;;;;21.65;100.00;97236.84;5092406;28;20257;-86
2021/06/17 06:43:12;;;;;;;3.10;2.33;;;;;;;21.37;100.00;97232.47;5092222;28;20224;-85
2021/06/17 06:45:41;;;;;;;5.07;2.73;;;;;;;21.60;100.00;97230.25;5092020;28;20684;-85
2021/06/17 06:48:09;;;;;;;2.70;2.50;;;;;;;21.99;100.00;97212.53;5092614;28;20200;-85
2021/06/17 06:50:37;;;;;;;2.30;1.90;;;;;;;22.30;100.00;97179.75;5092217;28;20253;-85
2021/06/17 06:53:04;;;;;;;2.33;2.13;;;;;;;22.61;100.00;97155.97;5092200;28;20198;-85
2021/06/17 06:55:33;;;;;;;2.57;2.37;;;;;;;22.25;100.00;97125.22;5092097;28;20235;-85
2021/06/17 06:58:01;;;;;;;2.70;2.50;;;;;;;21.88;100.00;97134.75;5092108;28;20192;-85
2021/06/17 07:00:28;;;;;;;8.73;2.57;;;;;;;22.12;100.00;97134.06;5092310;28;20348;-85
2021/06/17 07:02:56;;;;;;;2.00;1.90;;;;;;;22.73;100.00;97122.09;5092179;28;20219;-85
2021/06/17 07:05:23;;;;;;;2.50;2.30;;;;;;;22.88;100.00;97081.59;5091649;28;20231;-84
2021/06/17 07:07:50;;;;;;;2.73;2.53;;;;;;;22.98;100.00;97060.53;5092860;28;20203;-85
2021/06/17 07:10:18;;;;;;;3.17;2.03;;;;;;;23.20;100.00;97063.66;5096128;28;20271;-85
2021/06/17 07:12:47;;;;;;;2.70;2.50;;;;;;;23.02;100.00;97033.06;5096285;28;20196;-85
2021/06/17 07:15:15;;;;;;;3.63;2.23;;;;;;;23.01;100.00;97033.28;5095995;28;20196;-85
2021/06/17 07:17:42;;;;;;;2.87;2.63;;;;;;;23.20;100.00;97031.47;5096408;28;20584;-85
2021/06/17 07:20:10;;;;;;;3.43;2.33;;;;;;;23.33;100.00;97031.34;5095954;28;20196;-86
2021/06/17 07:22:38;;;;;;;2.13;2.03;;;;;;;23.43;100.00;97020.13;5096230;28;20251;-85
2021/06/17 07:25:06;;;;;;;2.50;2.30;;;;;;;23.43;100.00;96999.47;5095827;28;20199;-85
2021/06/17 07:27:33;;;;;;;4.90;2.30;;;;;;;23.79;100.00;97008.59;5095793;28;20269;-86
2021/06/17 07:30:02;;;;;;;2.60;2.30;;;;;;;23.93;100.00;96985.09;5095893;28;20200;-85
2021/06/17 07:32:30;;;;;;;4.00;2.37;;;;;;;23.87;100.00;97002.94;5095764;28;20207;-85
2021/06/17 07:34:58;;;;;;;3.37;2.50;;;;;;;23.73;100.00;97010.34;5095880;28;20613;-85
2021/06/17 07:37:25;;;;;;;4.17;2.47;;;;;;;23.78;100.00;96993.56;5095481;28;20215;-85
2021/06/17 07:39:52;;;;;;;2.70;2.50;;;;;;;23.67;100.00;96978.16;5095514;28;20201;-86
2021/06/17 07:42:20;;;;;;;2.37;2.17;;;;;;;23.67;100.00;96965.59;5095480;28;20236;-86
2021/06/17 07:44:49;;;;;;;2.80;2.60;;;;;;;23.61;100.00;96974.50;5095296;28;20681;-85
2021/06/17 07:47:19;;;;;;;2.20;2.00;;;;;;;22.88;100.00;96988.59;5095281;28;20222;-85
2021/06/17 07:49:46;;;;;;;2.80;2.53;;;;;;;22.75;100.00;97039.63;5095200;28;20196;-85
2021/06/17 07:52:13;;;;;;;3.30;2.70;;;;;;;22.63;100.00;97052.91;5095712;28;20204;-85
2021/06/17 07:54:41;;;;;;;3.10;2.90;;;;;;;22.51;100.00;97050.09;5095252;28;20253;-86
2021/06/17 07:57:08;;;;;;;3.00;2.70;;;;;;;22.45;100.00;97040.25;5095269;28;20200;-85
2021/06/17 07:59:36;;;;;;;2.67;2.53;;;;;;;22.33;100.00;97049.97;5094977;28;20198;-86
2021/06/17 08:02:04;;;;;;;7.37;2.83;;;;;;;22.60;100.00;97039.94;5095155;28;20204;-85
2021/06/17 08:04:33;;;;;;;2.73;2.40;;;;;;;23.37;100.00;97034.41;5094971;28;20220;-84
2021/06/17 08:07:01;;;;;;;3.37;3.17;;;;;;;23.15;100.00;97007.19;5095091;28;20212;-85
2021/06/17 08:09:28;;;;;;;2.67;2.40;;;;;;;23.38;100.00;96999.34;5094546;28;20232;-85
2021/06/17 08:11:56;;;;;;;3.53;3.13;;;;;;;23.59;100.00;97002.59;5094977;28;20218;-85
2021/06/17 08:14:25;;;;;;;4.00;3.23;;;;;;;23.96;100.00;97003.44;5094724;28;20200;-85
2021/06/17 08:16:53;;;;;;;3.27;3.00;;;;;;;24.05;100.00;96972.56;5095103;28;20284;-85
2021/06/17 08:19:27;;;;;;;3.50;2.67;;;;;;;23.41;100.00;96973.91;5093775;28;20741;-84
2021/06/17 08:21:58;;;;;;;2.87;2.67;;;;;;;23.45;100.00;96981.31;5095023;28;20649;-85
2021/06/17 08:24:26;;;;;;;4.03;2.60;;;;;;;23.65;100.00;96980.25;5094497;28;20220;-85
2021/06/17 08:26:53;;;;;;;3.10;2.90;;;;;;;23.76;100.00;96976.03;5094674;28;20684;-85
2021/06/17 08:29:22;;;;;;;3.37;3.03;;;;;;;23.60;100.00;96999.72;5094190;28;20196;-85
2021/06/17 08:31:49;;;;;;;2.57;2.40;;;;;;;23.85;100.00;96980.06;5094511;28;20203;-85
2021/06/17 08:34:17;;;;;;;2.73;2.53;;;;;;;23.99;100.00;96973.47;5094380;28;20204;-85
2021/06/17 08:36:45;;;;;;;2.57;2.37;;;;;;;24.24;100.00;96978.69;5095233;28;20569;-84
2021/06/17 08:39:14;;;;;;;2.70;2.50;;;;;;;24.50;100.00;96990.16;5094247;28;20201;-85
2021/06/17 08:41:41;;;;;;;5.20;2.90;;;;;;;24.61;100.00;96957.13;5094599;28;20208;-84
2021/06/17 08:44:09;;;;;;;3.37;2.40;;;;;;;24.56;100.00;96916.66;5094146;28;20227;-85
2021/06/17 08:46:37;;;;;;;4.03;2.60;;;;;;;23.96;100.00;96941.69;5094093;28;20689;-85
2021/06/17 08:49:04;;;;;;;3.67;2.80;;;;;;;23.56;100.00;96979.75;5094419;28;20590;-84
2021/06/17 08:51:35;;;;;;;2.33;2.13;;;;;;;23.56;100.00;97013.81;5094205;28;20210;-84
2021/06/17 08:54:02;;;;;;;2.97;2.77;;;;;;;23.83;100.00;97004.44;5093824;28;20181;-84
2021/06/17 08:56:31;;;;;;;2.57;2.33;;;;;;;23.96;100.00;96972.03;5094391;28;20192;-84
2021/06/17 08:58:59;;;;;;;2.63;2.43;;;;;;;24.22;100.00;96980.81;5093921;28;20200;-85
2021/06/17 09:08:40;;;;;;;3.10;2.10;;;;;;;24.43;100.00;96929.28;5093816;28;20231;-85
2021/06/17 09:11:22;;;;;;;2.33;2.23;;;;;;;24.62;100.00;96894.25;5093871;28;20625;-85
2021/06/17 09:13:51;;;;;;;2.37;2.20;;;;;;;24.60;100.00;96864.94;5093592;28;20188;-85
2021/06/17 09:16:28;;;;;;;2.13;2.03;;;;;;;24.89;100.00;96887.34;5093831;28;20192;-85
2021/06/17 09:18:55;;;;;;;2.90;2.50;;;;;;;25.20;100.00;96890.75;5093565;28;20222;-86
2021/06/17 09:21:23;;;;;;;2.13;2.03;;;;;;;25.15;100.00;96861.06;5093652;28;20200;-85
2021/06/17 09:23:51;;;;;;;2.80;2.20;;;;;;;25.17;100.00;96858.13;5093103;28;20253;-85
2021/06/17 09:26:21;;;;;;;2.53;2.33;;;;;;;25.34;100.00;96881.38;5093558;28;20292;-85
2021/06/17 09:28:59;;;;;;;3.40;2.20;;;;;;;25.40;100.00;96841.13;5093623;28;20259;-85
2021/06/17 09:31:28;;;;;;;2.40;2.30;;;;;;;25.45;100.00;96838.53;5093244;28;20676;-85
2021/06/17 09:33:57;;;;;;;2.60;2.40;;;;;;;25.56;100.00;96829.59;5093522;28;20271;-85
2021/06/17 09:36:26;;;;;;;2.23;2.13;;;;;;;25.39;100.00;96821.47;5093394;28;20242;-86
2021/06/17 09:38:58;;;;;;;2.13;2.03;;;;;;;25.48;100.00;96824.59;5093099;28;20196;-85
2021/06/17 09:41:41;;;;;;;2.30;2.10;;;;;;;25.50;100.00;96855.59;5093141;28;20185;-85
2021/06/17 09:44:32;;;;;;;2.60;2.40;;;;;;;25.69;100.00;96831.19;5093274;28;20231;-85
2021/06/17 09:47:07;;;;;;;2.40;2.20;;;;;;;25.70;100.00;96806.72;5093311;28;20181;-85
2021/06/17 09:49:35;;;;;;;2.30;2.20;;;;;;;25.77;100.00;96752.72;5092991;28;20207;-86
2021/06/17 09:52:02;;;;;;;2.23;2.13;;;;;;;25.80;100.00;96733.41;5092899;28;20656;-85
2021/06/17 09:54:31;;;;;;;2.42;2.17;;;;;;;25.98;100.00;96740.44;5092808;28;20199;-86
2021/06/17 09:57:01;;;;;;;2.63;2.08;;;;;;;25.51;100.00;96740.69;5093025;28;20196;-85
2021/06/17 09:59:43;;;;;;;3.95;2.22;;;;;;;24.98;100.00;96752.56;5093087;28;20567;-86
2021/06/17 10:02:16;;;;;;;2.10;2.00;;;;;;;25.06;100.00;96760.25;5092771;28;20241;-85
2021/06/17 10:04:44;;;;;;;2.10;2.00;;;;;;;25.33;100.00;96763.25;5092622;28;20200;-85
2021/06/17 10:07:11;;;;;;;4.13;2.17;;;;;;;25.65;100.00;96735.81;5092949;28;20616;-86
2021/06/17 10:09:39;;;;;;;2.10;1.90;;;;;;;25.75;100.00;96709.88;5092502;28;20282;-86
2021/06/17 10:12:07;;;;;;;3.20;1.88;;;;;;;25.72;100.00;96715.75;5092876;28;20227;-86
2021/06/17 10:14:35;;;;;;;3.83;2.07;;;;;;;25.85;100.00;96696.63;5092436;28;20199;-86
2021/06/17 10:17:04;;;;;;;3.15;2.17;;;;;;;26.07;100.00;96695.88;5092591;28;20718;-86
2021/06/17 10:19:32;;;;;;;2.20;2.10;;;;;;;26.16;100.00;96686.31;5092474;28;20192;-85
2021/06/17 10:22:01;;;;;;;1.90;1.80;;;;;;;26.16;100.00;96631.63;5092522;28;20200;-85
2021/06/17 10:24:30;;;;;;;2.10;1.93;;;;;;;26.43;100.00;96646.00;5092124;28;20227;-86
2021/06/17 10:26:59;;;;;;;2.47;2.27;;;;;;;26.07;100.00;96572.78;5092430;28;20672;-85
2021/06/17 10:29:39;;;;;;;2.10;1.80;;;;;;;26.35;100.00;96545.91;5092224;28;20283;-86
2021/06/17 10:32:09;;;;;;;2.20;2.10;;;;;;;26.23;100.00;96522.59;5092494;28;20202;-86
2021/06/17 10:34:54;;;;;;;1.98;1.88;;;;;;;25.95;100.00;96529.00;5092225;28;20634;-86
2021/06/17 10:37:26;;;;;;;2.20;2.00;;;;;;;26.17;100.00;96550.53;5092297;28;20592;-85
2021/06/17 10:39:55;;;;;;;2.55;2.35;;;;;;;25.83;100.00;96569.50;5092167;28;20188;-86
2021/06/17 10:42:31;;;;;;;2.65;2.45;;;;;;;26.12;100.00;96563.13;5091865;28;20200;-85
2021/06/17 10:45:00;;;;;;;2.53;2.33;;;;;;;26.09;100.00;96534.84;5092138;28;20223;-85
2021/06/17 10:47:59;;;;;;;2.20;1.97;;;;;;;26.29;100.00;96536.94;5092329;28;20193;-85
2021/06/17 10:50:33;;;;;;;3.55;2.15;;;;;;;25.69;100.00;96522.41;5092007;28;20189;-86
2021/06/17 10:53:23;;;;;;;2.30;2.20;;;;;;;25.47;100.00;96543.09;5092142;28;20220;-85
2021/06/17 10:55:56;;;;;;;3.17;2.20;;;;;;;25.07;100.00;96562.88;5091914;28;20192;-85
2021/06/17 10:59:01;;;;;;;4.05;2.63;;;;;;;25.04;100.00;96577.66;5092108;28;20577;-86
2021/06/17 11:01:34;;;;;;;5.78;2.60;;;;;;;25.62;100.00;96565.66;5050893;28;20286;-85
2021/06/17 11:04:12;;;;;;;2.35;2.15;;;;;;;25.66;100.00;96551.72;5091618;28;20204;-86
2021/06/17 11:10:06;;;;;;;2.72;2.13;;;;;;;26.29;100.00;96575.50;5091408;28;20228;-85
2021/06/17 11:13:00;;;;;;;3.50;2.30;;;;;;;25.67;100.00;96472.56;5091883;28;20188;-85
2021/06/17 11:15:45;;;;;;;3.30;2.20;;;;;;;25.88;100.00;96468.31;5091755;28;20263;-86
2021/06/17 11:18:13;;;;;;;2.22;2.03;;;;;;;26.03;100.00;96426.22;5091600;28;20195;-85
2021/06/17 11:20:44;;;;;;;3.85;2.00;;;;;;;25.82;100.00;96406.31;5091996;28;20214;-84
2021/06/17 11:23:16;;;;;;;5.60;2.00;;;;;;;26.32;100.00;96397.16;5091590;28;20190;-85
2021/06/17 11:25:47;;;;;;;6.35;2.28;;;;;;;26.60;100.00;96386.34;5091786;28;20204;-85
2021/06/17 11:28:15;;;;;;;2.25;2.00;;;;;;;26.14;100.00;96324.78;5091762;28;20272;-85
2021/06/17 11:30:58;;;;;;;2.30;2.20;;;;;;;25.97;100.00;96324.88;5091485;28;20250;-85
2021/06/17 11:33:46;;;;;;;2.08;1.90;;;;;;;26.18;100.00;96260.41;5089228;28;20200;-85
2021/06/17 11:36:17;;;;;;;2.10;2.00;;;;;;;26.35;100.00;96277.25;5091744;28;20577;-85
2021/06/17 11:38:45;;;;;;;2.50;2.30;;;;;;;26.63;100.00;96254.56;5091573;28;20272;-86
2021/06/17 11:41:18;;;;;;;2.30;2.10;;;;;;;26.25;100.00;96209.81;5091428;28;20202;-86
2021/06/17 11:43:54;;;;;;;3.00;2.28;;;;;;;26.45;100.00;96182.19;5091503;28;20648;-85
2021/06/17 11:46:26;;;;;;;4.45;1.80;;;;;;;26.85;100.00;96145.75;5091659;28;20249;-86
2021/06/17 11:48:55;;;;;;;2.55;2.35;;;;;;;26.87;100.00;96122.00;5091388;28;20642;-85
2021/06/17 11:51:25;;;;;;;1.98;1.88;;;;;;;27.06;100.00;96109.66;5091810;28;20257;-86